Time;durP1;ratioP1;P1;durP2;ratioP2;P2;SDS_P1;SDS_P2;PMS_P1;PMS_P2;Temp;Humidity;BMP_temperature;BMP_pressure;BME280_temperature;BME280_humidity;BME280_pressure;Samples;Min_cycle;Max_cycle;Signal;HPM_P1;HPM_P2
2021/01/23 00:01:20;;;;;;;2.40;1.95;;;;;;;13.54;54.36;98812.66;4922997;28;123962;-63
2021/01/23 00:03:46;;;;;;;2.25;1.88;;;;;;;13.50;54.43;98807.91;4911763;28;125041;-63
2021/01/23 00:06:12;;;;;;;2.47;1.70;;;;;;;13.49;54.70;98803.59;4903874;28;107208;-63
2021/01/23 00:08:39;;;;;;;3.28;1.58;;;;;;;13.50;54.43;98807.09;4890267;28;128118;-63
2021/01/23 00:11:05;;;;;;;1.88;1.65;;;;;;;13.48;54.58;98803.94;4898704;28;127358;-63
2021/01/23 00:13:31;;;;;;;2.25;1.85;;;;;;;13.48;54.44;98796.63;4899952;28;98765;-63
2021/01/23 00:15:57;;;;;;;2.40;1.80;;;;;;;13.50;54.40;98799.00;4899088;28;123793;-63
2021/01/23 00:18:23;;;;;;;2.72;2.20;;;;;;;13.51;54.40;98795.16;4892075;28;98486;-63
2021/01/23 00:20:49;;;;;;;3.35;2.30;;;;;;;13.47;54.38;98788.81;4878964;28;108598;-63
2021/01/23 00:23:16;;;;;;;2.42;2.08;;;;;;;13.47;54.49;98781.47;4887764;28;98202;-63
2021/01/23 00:25:42;;;;;;;3.50;2.45;;;;;;;13.45;54.57;98780.22;4897565;28;111861;-63
2021/01/23 00:28:08;;;;;;;3.30;2.35;;;;;;;13.47;54.33;98784.19;4891931;28;127382;-63
2021/01/23 00:30:34;;;;;;;2.88;2.30;;;;;;;13.44;54.44;98781.34;4917781;28;128170;-63
2021/01/23 00:33:00;;;;;;;2.85;2.30;;;;;;;13.45;54.42;98788.34;4916264;28;127099;-63
2021/01/23 00:35:26;;;;;;;2.90;2.30;;;;;;;13.46;54.51;98795.34;4913598;28;123947;-63
2021/01/23 00:37:53;;;;;;;3.42;2.55;;;;;;;13.45;54.31;98782.94;4900728;28;125985;-63
2021/01/23 00:40:19;;;;;;;3.05;2.38;;;;;;;13.46;54.28;98781.81;4920354;28;99035;-63
2021/01/23 00:42:46;;;;;;;3.42;2.60;;;;;;;13.43;54.54;98775.13;4915323;28;127014;-63
2021/01/23 00:45:13;;;;;;;2.95;2.33;;;;;;;13.46;54.46;98781.81;4905376;28;109222;-63
2021/01/23 00:47:39;;;;;;;3.50;2.60;;;;;;;13.51;54.18;98781.63;4914529;28;119752;-63
2021/01/23 00:50:06;;;;;;;2.95;2.38;;;;;;;13.54;53.98;98791.81;4922270;28;127970;-62
2021/01/23 00:52:32;;;;;;;3.40;2.72;;;;;;;13.57;54.14;98788.44;4916626;28;101641;-63
2021/01/23 00:54:58;;;;;;;3.20;2.58;;;;;;;13.58;53.94;98795.44;4922117;28;97874;-62
2021/01/23 00:57:24;;;;;;;2.90;2.40;;;;;;;13.62;53.67;98793.66;4916600;28;128253;-63
2021/01/23 00:59:50;;;;;;;2.80;2.15;;;;;;;13.63;54.01;98794.44;4919927;28;127863;-63
2021/01/23 01:02:16;;;;;;;2.15;1.92;;;;;;;13.66;53.99;98801.94;4917897;28;127318;-62
2021/01/23 01:04:42;;;;;;;2.38;1.83;;;;;;;13.64;53.46;98799.56;4918685;28;120434;-63
2021/01/23 01:07:08;;;;;;;2.47;1.90;;;;;;;13.68;53.55;98797.78;4919067;28;126853;-62
2021/01/23 01:09:34;;;;;;;3.35;2.00;;;;;;;13.66;53.55;98801.94;4881027;28;100384;-63
2021/01/23 01:12:00;;;;;;;2.55;2.05;;;;;;;13.66;53.56;98802.72;4900007;28;127534;-63
2021/01/23 01:14:26;;;;;;;2.33;1.77;;;;;;;13.63;53.83;98794.44;4896202;28;123405;-62
2021/01/23 01:16:52;;;;;;;2.80;1.92;;;;;;;13.63;53.58;98795.25;4900797;28;98310;-62
2021/01/23 01:19:18;;;;;;;2.00;1.73;;;;;;;13.61;53.72;98794.00;4896682;28;128225;-63
2021/01/23 01:21:44;;;;;;;2.03;1.60;;;;;;;13.59;53.86;98785.41;4885345;28;116074;-62
2021/01/23 01:24:10;;;;;;;2.42;1.40;;;;;;;13.61;53.68;98789.38;4901221;28;124665;-63
2021/01/23 01:26:36;;;;;;;2.22;1.55;;;;;;;13.58;53.90;98786.53;4886227;28;98681;-61
2021/01/23 01:29:02;;;;;;;2.25;1.55;;;;;;;13.57;53.52;98791.16;4876097;28;126763;-63
2021/01/23 01:31:28;;;;;;;2.42;1.65;;;;;;;13.61;53.58;98788.59;4849351;28;127103;-63
2021/01/23 01:33:54;;;;;;;1.40;1.30;;;;;;;13.58;53.83;98791.94;4865659;28;122302;-63
2021/01/23 01:36:21;;;;;;;2.45;1.50;;;;;;;13.56;53.72;98786.88;4881297;28;128492;-63
2021/01/23 01:38:47;;;;;;;2.30;1.52;;;;;;;13.54;53.83;98788.31;4876448;28;99155;-63
2021/01/23 01:41:14;;;;;;;2.20;1.40;;;;;;;13.54;53.84;98780.19;4882357;28;127667;-63
2021/01/23 01:43:41;;;;;;;2.53;1.60;;;;;;;13.52;53.90;98772.41;4875535;28;122878;-63
2021/01/23 01:46:08;;;;;;;2.70;1.70;;;;;;;13.51;53.98;98770.78;4866071;28;97993;-63
2021/01/23 01:48:34;;;;;;;3.10;1.90;;;;;;;13.49;53.95;98775.75;4850423;28;98560;-63
2021/01/23 01:51:03;;;;;;;2.22;1.30;;;;;;;13.49;53.81;98770.34;4881600;28;116152;-63
2021/01/23 01:53:29;;;;;;;2.35;1.65;;;;;;;13.47;53.80;98767.94;4892919;28;117177;-63
2021/01/23 01:55:56;;;;;;;2.92;1.70;;;;;;;13.47;53.89;98759.03;4918064;28;98275;-63
2021/01/23 01:58:22;;;;;;;1.98;1.55;;;;;;;13.47;53.88;98751.69;4916813;28;118874;-63
2021/01/23 02:00:48;;;;;;;2.30;1.80;;;;;;;13.49;53.82;98759.50;4902257;28;125940;-63
2021/01/23 02:03:40;;;;;;;3.50;1.75;;;;;;;13.44;54.02;98762.38;4902406;28;120661;-63
2021/01/23 02:06:27;;;;;;;3.03;1.60;;;;;;;13.43;54.06;98758.09;4900852;28;100586;-63
2021/01/23 02:09:17;;;;;;;2.33;1.50;;;;;;;13.42;54.01;98759.22;4901496;28;98424;-63
2021/01/23 02:12:04;;;;;;;3.10;1.50;;;;;;;13.38;53.87;98750.97;4916587;28;98144;-63
2021/01/23 02:14:48;;;;;;;3.42;1.40;;;;;;;13.37;54.06;98748.59;4900520;28;97882;-63
2021/01/23 02:17:15;;;;;;;2.70;1.63;;;;;;;13.38;54.02;98759.09;4902600;28;98738;-62
2021/01/23 02:19:58;;;;;;;1.80;1.30;;;;;;;13.38;54.08;98761.78;4884369;28;123068;-63
2021/01/23 02:22:56;;;;;;;2.70;1.30;;;;;;;13.38;54.05;98752.88;4899404;28;98636;-63
2021/01/23 02:25:22;;;;;;;2.55;1.50;;;;;;;13.36;54.36;98755.94;4902875;28;97907;-63
2021/01/23 02:28:14;;;;;;;3.08;1.30;;;;;;;13.34;54.04;98760.06;4899254;28;127992;-63
2021/01/23 02:30:57;;;;;;;1.83;0.95;;;;;;;13.33;54.09;98750.38;4898716;28;122410;-62
2021/01/23 02:33:23;;;;;;;2.47;1.10;;;;;;;13.31;54.09;98744.47;4886273;28;98126;-63
2021/01/23 02:35:49;;;;;;;2.17;1.10;;;;;;;13.30;53.93;98745.63;4900374;28;121489;-63
2021/01/23 02:38:15;;;;;;;1.98;0.88;;;;;;;13.29;54.11;98742.13;4899499;28;125885;-63
2021/01/23 02:40:41;;;;;;;2.58;1.10;;;;;;;13.32;54.08;98744.16;4883329;28;129344;-63
2021/01/23 02:43:08;;;;;;;2.25;1.10;;;;;;;13.31;53.97;98744.47;4867424;28;127338;-63
2021/01/23 02:45:34;;;;;;;1.83;1.17;;;;;;;13.31;53.85;98734.44;4900366;28;115414;-63
2021/01/23 02:48:00;;;;;;;1.60;0.80;;;;;;;13.31;53.88;98730.94;4901103;28;127693;-63
2021/01/23 02:50:26;;;;;;;2.00;0.77;;;;;;;13.30;54.00;98732.09;4900154;28;126327;-63
2021/01/23 02:53:18;;;;;;;2.13;0.90;;;;;;;13.26;53.96;98734.66;4916841;28;98351;-63
2021/01/23 02:55:46;;;;;;;1.77;0.70;;;;;;;13.26;53.76;98724.59;4915535;28;97772;-63
2021/01/23 02:58:12;;;;;;;2.20;1.02;;;;;;;13.26;53.84;98721.91;4897747;28;98452;-63
2021/01/23 03:00:38;;;;;;;1.50;0.88;;;;;;;13.26;53.75;98735.44;4864417;28;128070;-63
2021/01/23 03:03:04;;;;;;;1.10;0.60;;;;;;;13.25;53.90;98728.44;4856002;28;127961;-63
2021/01/23 03:05:32;;;;;;;2.03;0.95;;;;;;;13.25;53.86;98741.97;4863403;28;123289;-63
2021/01/23 03:07:58;;;;;;;1.50;0.55;;;;;;;13.24;54.02;98734.97;4880508;28;97773;-62
2021/01/23 03:10:41;;;;;;;1.48;0.82;;;;;;;13.22;53.89;98729.06;4886947;28;127155;-63
2021/01/23 03:13:07;;;;;;;1.58;0.80;;;;;;;13.19;53.94;98721.59;4900530;28;121571;-63
2021/01/23 03:15:33;;;;;;;1.77;0.90;;;;;;;13.22;53.86;98725.56;4883431;28;113226;-63
2021/01/23 03:18:00;;;;;;;1.33;0.80;;;;;;;13.19;53.94;98720.78;4890400;28;125819;-63
2021/01/23 03:20:26;;;;;;;1.75;0.63;;;;;;;13.17;54.16;98714.94;4896282;28;120415;-63
2021/01/23 03:22:56;;;;;;;1.45;0.57;;;;;;;13.15;54.08;98727.97;4901842;28;98048;-63
2021/01/23 03:25:23;;;;;;;1.42;0.80;;;;;;;13.14;54.00;98723.69;4902295;28;114997;-63
2021/01/23 03:27:49;;;;;;;1.50;0.70;;;;;;;13.13;54.02;98722.91;4892869;28;121257;-63
2021/01/23 03:30:19;;;;;;;1.67;0.70;;;;;;;13.12;54.00;98724.00;4901479;28;127783;-63
2021/01/23 03:32:47;;;;;;;1.90;1.00;;;;;;;13.11;54.03;98719.72;4883990;28;98343;-63
2021/01/23 03:35:13;;;;;;;1.92;0.80;;;;;;;13.09;54.10;98716.56;4901753;28;98037;-63
2021/01/23 03:37:39;;;;;;;1.60;0.90;;;;;;;13.10;54.27;98707.31;4894221;28;98883;-63
2021/01/23 03:40:06;;;;;;;1.10;0.70;;;;;;;13.08;54.05;98701.44;4900699;28;123360;-63
2021/01/23 03:42:33;;;;;;;1.60;0.80;;;;;;;13.07;53.98;98691.75;4900170;28;98141;-62
2021/01/23 03:44:59;;;;;;;1.60;0.70;;;;;;;13.06;54.13;98694.78;4902279;28;97883;-63
2021/01/23 03:47:25;;;;;;;1.42;0.70;;;;;;;13.05;53.96;98685.06;4896094;28;99194;-62
2021/01/23 03:49:51;;;;;;;1.63;0.95;;;;;;;13.05;53.98;98675.06;4897752;28;128157;-62
2021/01/23 03:52:17;;;;;;;1.67;0.75;;;;;;;13.05;54.00;98679.66;4900617;28;126997;-63
2021/01/23 03:54:43;;;;;;;1.35;0.63;;;;;;;13.03;54.24;98669.16;4900953;28;123601;-63
2021/01/23 03:57:09;;;;;;;1.20;0.63;;;;;;;13.02;54.00;98673.00;4899900;28;128020;-63
2021/01/23 03:59:35;;;;;;;1.85;0.88;;;;;;;13.01;54.03;98666.81;4901643;28;98637;-63
2021/01/23 04:02:05;;;;;;;1.45;0.73;;;;;;;13.00;54.05;98675.22;4900520;28;127418;-62
2021/01/23 04:04:31;;;;;;;1.83;0.60;;;;;;;12.99;53.99;98671.72;4901130;28;115310;-63
2021/01/23 04:06:58;;;;;;;1.27;0.68;;;;;;;12.96;54.16;98683.19;4899544;28;122316;-63
2021/01/23 04:09:25;;;;;;;2.17;0.88;;;;;;;12.97;54.11;98676.69;4903579;28;128641;-63
2021/01/23 04:11:51;;;;;;;1.63;0.70;;;;;;;12.98;53.97;98675.56;4919135;28;122044;-63
2021/01/23 04:14:17;;;;;;;1.50;0.80;;;;;;;12.99;54.03;98665.53;4902488;28;113065;-63
2021/01/23 04:16:47;;;;;;;1.70;0.85;;;;;;;12.98;54.02;98650.44;4915724;28;127467;-63
2021/01/23 04:19:14;;;;;;;2.17;0.65;;;;;;;12.96;54.02;98648.03;4902062;28;111621;-63
2021/01/23 04:21:40;;;;;;;1.45;0.73;;;;;;;12.98;54.06;98645.81;4919118;28;97814;-63
2021/01/23 04:24:07;;;;;;;1.60;0.80;;;;;;;12.95;53.69;98630.22;4918526;28;97807;-63
2021/01/23 04:26:33;;;;;;;1.48;0.80;;;;;;;12.96;54.08;98631.03;4901305;28;120055;-63
2021/01/23 04:28:59;;;;;;;1.85;0.82;;;;;;;12.97;53.98;98632.63;4902225;28;116576;-63
2021/01/23 04:31:25;;;;;;;1.65;0.80;;;;;;;12.96;53.86;98626.41;4917306;28;126519;-62
2021/01/23 04:33:51;;;;;;;1.77;0.80;;;;;;;12.96;53.85;98625.63;4901831;28;122411;-63
2021/01/23 04:36:17;;;;;;;2.53;0.98;;;;;;;12.94;54.14;98625.94;4917463;28;127378;-63
2021/01/23 04:38:43;;;;;;;2.00;0.82;;;;;;;12.94;54.17;98609.72;4901743;28;127307;-62
2021/01/23 04:41:09;;;;;;;1.92;1.00;;;;;;;12.91;54.09;98615.78;4919259;28;127640;-62
2021/01/23 04:43:35;;;;;;;1.45;0.88;;;;;;;12.90;54.12;98613.41;4901466;28;122942;-63
2021/01/23 04:46:01;;;;;;;1.35;0.82;;;;;;;12.91;54.71;98604.19;4901446;28;126454;-62
2021/01/23 04:48:29;;;;;;;2.25;1.02;;;;;;;12.90;54.42;98613.41;4916364;28;129458;-62
2021/01/23 04:50:55;;;;;;;2.00;1.00;;;;;;;12.88;54.13;98610.22;4901668;28;109757;-63
2021/01/23 04:53:21;;;;;;;2.22;0.98;;;;;;;12.88;54.66;98618.34;4901162;28;118284;-62
2021/01/23 04:55:47;;;;;;;2.17;1.10;;;;;;;12.89;54.52;98619.91;4900932;28;128094;-62
2021/01/23 04:58:13;;;;;;;1.95;0.90;;;;;;;12.88;54.43;98616.44;4917518;28;127862;-63
2021/01/23 05:00:39;;;;;;;1.60;0.90;;;;;;;12.85;54.64;98600.06;4900893;28;127103;-62
2021/01/23 05:03:06;;;;;;;2.38;1.10;;;;;;;12.86;54.71;98610.56;4884868;28;122043;-62
2021/01/23 05:05:35;;;;;;;2.28;1.10;;;;;;;12.85;54.59;98594.66;4902139;28;98541;-62
2021/01/23 05:08:13;;;;;;;1.55;0.93;;;;;;;12.84;54.84;98584.97;4919433;28;98594;-62
2021/01/23 05:10:40;;;;;;;2.92;0.98;;;;;;;12.81;54.41;98594.53;4919262;28;98533;-62
2021/01/23 05:13:18;;;;;;;2.45;1.10;;;;;;;12.73;54.98;98590.75;4919317;28;97854;-62
2021/01/23 05:15:45;;;;;;;2.70;1.10;;;;;;;12.75;55.02;98593.91;4918788;28;128175;-63
2021/01/23 05:18:15;;;;;;;2.28;0.93;;;;;;;12.74;54.71;98605.84;4919119;28;99436;-62
2021/01/23 05:20:48;;;;;;;2.30;0.85;;;;;;;12.75;54.97;98604.72;4902282;28;98017;-62
2021/01/23 05:23:28;;;;;;;1.83;0.98;;;;;;;12.75;54.96;98596.63;4920432;28;97665;-63
2021/01/23 05:25:58;;;;;;;1.30;0.88;;;;;;;12.72;55.09;98593.78;4902072;28;98695;-62
2021/01/23 05:28:37;;;;;;;1.10;0.60;;;;;;;12.70;55.22;98609.53;4920613;28;108372;-62
2021/01/23 05:31:24;;;;;;;2.20;0.98;;;;;;;12.70;55.28;98599.53;4922767;28;98170;-62
2021/01/23 05:33:50;;;;;;;2.03;0.90;;;;;;;12.71;55.47;98601.09;4922436;28;119957;-62
2021/01/23 05:36:16;;;;;;;2.55;0.80;;;;;;;12.71;55.28;98605.72;4903658;28;128337;-62
2021/01/23 05:38:44;;;;;;;2.47;1.05;;;;;;;12.71;55.46;98597.59;4921936;28;127924;-62
2021/01/23 05:41:12;;;;;;;1.55;0.88;;;;;;;12.70;55.46;98594.13;4903821;28;97910;-62
2021/01/23 05:43:50;;;;;;;1.63;0.77;;;;;;;12.67;55.48;98602.09;4921412;28;97920;-62
2021/01/23 05:46:37;;;;;;;2.80;1.20;;;;;;;12.61;55.70;98589.84;4922067;28;98555;-62
2021/01/23 05:49:03;;;;;;;1.50;0.90;;;;;;;12.66;55.33;98595.09;4922345;28;99281;-62
2021/01/23 05:51:29;;;;;;;2.33;1.10;;;;;;;12.62;55.44;98588.75;4922314;28;119140;-62
2021/01/23 05:53:55;;;;;;;2.28;1.00;;;;;;;12.63;55.38;98590.34;4922691;28;123622;-62
2021/01/23 05:56:22;;;;;;;2.10;1.00;;;;;;;12.61;55.40;98584.44;4920979;28;128688;-62
2021/01/23 05:58:48;;;;;;;2.28;1.10;;;;;;;12.62;55.14;98580.66;4919370;28;128600;-62
2021/01/23 06:01:14;;;;;;;2.47;1.23;;;;;;;12.60;55.55;98593.69;4920767;28;127568;-62
2021/01/23 06:03:44;;;;;;;2.00;1.33;;;;;;;12.55;55.35;98581.16;4922953;28;98178;-62
2021/01/23 06:06:10;;;;;;;2.33;1.23;;;;;;;12.56;55.55;98580.03;4920766;28;98474;-62
2021/01/23 06:08:44;;;;;;;2.95;1.17;;;;;;;12.56;55.37;98573.84;4921216;28;113572;-62
2021/01/23 06:11:39;;;;;;;2.20;1.30;;;;;;;12.49;55.19;98552.72;4921760;28;98329;-62
2021/01/23 06:14:05;;;;;;;2.05;1.10;;;;;;;12.51;55.54;98545.88;4920262;28;97958;-62
2021/01/23 06:16:34;;;;;;;2.40;1.42;;;;;;;12.50;55.51;98538.91;4922011;28;98451;-62
2021/01/23 06:19:06;;;;;;;3.03;1.80;;;;;;;12.48;55.39;98537.63;4922780;28;97779;-62
2021/01/23 06:21:46;;;;;;;3.00;1.60;;;;;;;12.41;55.63;98543.53;4921786;28;99586;-62
2021/01/23 06:24:31;;;;;;;2.80;1.50;;;;;;;12.40;55.42;98543.88;4922453;28;98075;-62
2021/01/23 06:26:59;;;;;;;2.67;1.40;;;;;;;12.41;55.41;98546.22;4922323;28;98244;-62
2021/01/23 06:29:42;;;;;;;2.65;1.63;;;;;;;12.38;55.49;98543.38;4921791;28;97966;-62
2021/01/23 06:32:20;;;;;;;3.03;1.52;;;;;;;12.36;55.42;98542.94;4921375;28;106006;-62
2021/01/23 06:34:54;;;;;;;3.33;2.00;;;;;;;12.34;55.43;98543.28;4922331;28;98080;-62
2021/01/23 06:37:39;;;;;;;3.28;2.13;;;;;;;12.36;55.22;98549.13;4921138;28;99635;-62
2021/01/23 06:40:31;;;;;;;2.20;1.60;;;;;;;12.32;55.43;98550.09;4919256;28;97902;-62
2021/01/23 06:42:57;;;;;;;2.85;1.92;;;;;;;12.37;55.43;98550.69;4871064;28;125978;-62
2021/01/23 06:45:37;;;;;;;2.95;1.77;;;;;;;12.32;55.23;98553.59;4911546;28;99910;-62
2021/01/23 06:48:04;;;;;;;3.28;1.90;;;;;;;12.34;55.63;98553.25;4918691;28;98389;-62
2021/01/23 06:50:31;;;;;;;2.70;1.80;;;;;;;12.33;55.41;98560.56;4918666;28;123223;-62
2021/01/23 06:52:58;;;;;;;4.43;1.88;;;;;;;12.34;55.26;98561.38;4917792;28;98515;-62
2021/01/23 06:55:47;;;;;;;2.58;1.88;;;;;;;12.29;55.58;98568.53;4919535;28;97844;-62
2021/01/23 06:58:29;;;;;;;2.63;1.90;;;;;;;12.25;55.32;98564.91;4919082;28;97965;-62
2021/01/23 07:00:56;;;;;;;4.00;2.03;;;;;;;12.27;54.95;98570.00;4918771;28;98956;-62
2021/01/23 07:03:22;;;;;;;2.85;1.88;;;;;;;12.29;55.37;98575.84;4919067;28;98291;-62
2021/01/23 07:05:56;;;;;;;3.00;2.05;;;;;;;12.31;55.43;98584.44;4920196;28;97933;-62
2021/01/23 07:08:38;;;;;;;2.92;2.30;;;;;;;12.37;54.87;98563.44;4919221;28;98300;-62
2021/01/23 07:11:17;;;;;;;3.50;2.37;;;;;;;12.37;55.03;98572.31;4918225;28;98843;-62
2021/01/23 07:14:06;;;;;;;3.30;2.30;;;;;;;12.38;54.56;98573.94;4919749;28;97956;-62
2021/01/23 07:16:37;;;;;;;3.05;2.30;;;;;;;12.40;54.96;98587.09;4920080;28;97709;-62
2021/01/23 07:19:07;;;;;;;3.10;2.22;;;;;;;12.41;54.94;98594.88;4919386;28;98516;-62
2021/01/23 07:21:38;;;;;;;3.40;2.50;;;;;;;12.40;54.84;98581.69;4918090;28;99111;-62
2021/01/23 07:24:04;;;;;;;4.43;2.90;;;;;;;12.39;54.69;98586.31;4917902;28;118813;-62
2021/01/23 07:26:31;;;;;;;4.65;2.80;;;;;;;12.40;54.53;98587.09;4899515;28;117035;-62
2021/01/23 07:28:59;;;;;;;3.00;2.45;;;;;;;12.38;54.38;98592.84;4885001;28;98633;-62
2021/01/23 07:31:29;;;;;;;3.58;2.53;;;;;;;12.38;54.21;98586.63;4903327;28;98868;-62
2021/01/23 07:33:57;;;;;;;3.63;2.55;;;;;;;12.37;54.27;98577.72;4922061;28;120417;-62
2021/01/23 07:36:34;;;;;;;3.10;2.60;;;;;;;12.34;54.30;98582.97;4900603;28;117570;-62
2021/01/23 07:39:03;;;;;;;3.78;2.60;;;;;;;12.33;54.39;98586.81;4917916;28;99177;-62
2021/01/23 07:41:33;;;;;;;3.08;2.38;;;;;;;12.32;54.72;98587.94;4918422;28;99192;-62
2021/01/23 07:44:00;;;;;;;3.03;2.22;;;;;;;12.31;54.51;98580.94;4900790;28;98034;-63
2021/01/23 07:46:36;;;;;;;3.15;2.47;;;;;;;12.31;54.50;98578.25;4919232;28;97951;-62
2021/01/23 07:49:03;;;;;;;3.05;2.38;;;;;;;12.30;54.55;98582.84;4917689;28;99173;-62
2021/01/23 07:51:30;;;;;;;2.90;2.60;;;;;;;12.31;54.07;98583.66;4917773;28;107790;-62
2021/01/23 07:54:10;;;;;;;3.65;2.33;;;;;;;12.24;55.04;98590.34;4918200;28;98588;-63
2021/01/23 07:56:37;;;;;;;3.22;2.45;;;;;;;12.27;54.64;98591.59;4918794;28;97885;-63
2021/01/23 07:59:03;;;;;;;5.05;2.42;;;;;;;12.24;55.00;98593.03;4917995;28;99021;-63
2021/01/23 08:01:29;;;;;;;2.80;2.50;;;;;;;12.25;54.94;98599.22;4917838;28;98181;-62
2021/01/23 08:03:55;;;;;;;3.13;2.45;;;;;;;12.24;54.98;98601.13;4917544;28;114900;-62
2021/01/23 08:06:23;;;;;;;3.60;2.33;;;;;;;12.22;54.83;98599.88;4916590;28;124271;-62
2021/01/23 08:08:49;;;;;;;3.22;2.50;;;;;;;12.20;55.09;98600.19;4900562;28;98278;-62
2021/01/23 08:11:38;;;;;;;2.78;2.15;;;;;;;12.16;55.36;98604.66;4899960;28;99443;-62
2021/01/23 08:14:09;;;;;;;3.17;2.00;;;;;;;12.14;55.09;98601.47;4898465;28;97961;-63
2021/01/23 08:16:35;;;;;;;3.28;2.13;;;;;;;12.14;55.11;98596.06;4896262;28;97920;-62
2021/01/23 08:19:07;;;;;;;3.30;2.10;;;;;;;12.10;55.20;98594.34;4898263;28;100584;-62
2021/01/23 08:21:33;;;;;;;2.58;2.10;;;;;;;12.12;55.56;98597.53;4880331;28;98981;-62
2021/01/23 08:23:59;;;;;;;3.13;2.13;;;;;;;12.08;55.53;98604.69;4897433;28;100066;-62
2021/01/23 08:26:38;;;;;;;2.92;2.17;;;;;;;12.03;55.63;98598.34;4898661;28;97759;-63
2021/01/23 08:29:04;;;;;;;3.30;2.00;;;;;;;12.02;55.72;98595.94;4897959;28;119770;-62
2021/01/23 08:31:30;;;;;;;2.85;2.10;;;;;;;12.01;55.65;98600.56;4880045;28;99560;-62
2021/01/23 08:33:57;;;;;;;2.90;2.00;;;;;;;11.99;55.52;98597.41;4898865;28;98512;-62
2021/01/23 08:36:30;;;;;;;2.83;2.10;;;;;;;12.01;55.49;98597.06;4898480;28;97950;-62
2021/01/23 08:39:05;;;;;;;3.10;2.28;;;;;;;11.97;55.69;98593.44;4897226;28;122047;-63
2021/01/23 08:41:32;;;;;;;3.50;2.08;;;;;;;11.99;55.63;98593.91;4898604;28;98389;-62
2021/01/23 08:43:59;;;;;;;2.60;2.08;;;;;;;11.98;55.72;98592.31;4896045;28;107484;-62
2021/01/23 08:46:25;;;;;;;3.00;2.00;;;;;;;11.96;55.49;98598.03;4898860;28;97761;-62
2021/01/23 08:48:51;;;;;;;2.22;1.98;;;;;;;11.99;55.70;98591.22;4889967;28;128712;-62
2021/01/23 08:51:17;;;;;;;2.70;2.20;;;;;;;11.97;55.39;98596.91;4897995;28;99097;-62
2021/01/23 08:53:43;;;;;;;3.03;1.92;;;;;;;11.98;55.92;98601.19;4889169;28;105757;-62
2021/01/23 08:56:11;;;;;;;3.20;2.22;;;;;;;11.99;55.77;98610.13;4886854;28;123127;-63
2021/01/23 08:58:37;;;;;;;2.30;2.08;;;;;;;11.97;55.56;98604.22;4892789;28;98386;-63
2021/01/23 09:01:03;;;;;;;3.70;2.13;;;;;;;12.00;55.41;98609.00;4877453;28;126947;-62
2021/01/23 09:03:29;;;;;;;3.67;2.17;;;;;;;12.01;55.91;98608.66;4878415;28;128715;-63
2021/01/23 09:05:55;;;;;;;2.47;1.92;;;;;;;11.99;55.95;98621.69;4881411;28;120919;-62
2021/01/23 09:08:22;;;;;;;2.53;1.75;;;;;;;12.00;55.86;98609.00;4881387;28;127414;-62
2021/01/23 09:10:48;;;;;;;2.55;1.80;;;;;;;11.99;55.84;98616.31;4895573;28;128485;-63
2021/01/23 09:13:14;;;;;;;2.45;1.80;;;;;;;11.99;55.92;98616.31;4901321;28;98690;-63
2021/01/23 09:15:40;;;;;;;2.65;1.60;;;;;;;12.01;56.35;98624.88;4900995;28;120441;-63
2021/01/23 09:18:06;;;;;;;1.73;1.48;;;;;;;11.99;56.53;98623.63;4899534;28;128039;-63
2021/01/23 09:20:32;;;;;;;2.72;1.50;;;;;;;11.99;56.02;98629.00;4901882;28;99074;-63
2021/01/23 09:22:58;;;;;;;2.40;1.45;;;;;;;11.98;56.48;98622.00;4882060;28;126978;-63
2021/01/23 09:25:25;;;;;;;3.35;1.42;;;;;;;11.93;56.74;98628.38;4901148;28;109195;-63
2021/01/23 09:27:51;;;;;;;2.75;1.30;;;;;;;11.96;56.41;98630.44;4914808;28;127719;-63
2021/01/23 09:30:17;;;;;;;1.73;1.40;;;;;;;11.98;56.40;98633.59;4900845;28;127687;-63
2021/01/23 09:32:43;;;;;;;1.88;1.10;;;;;;;12.01;56.21;98638.38;4900059;28;122267;-63
2021/01/23 09:35:11;;;;;;;3.63;1.30;;;;;;;12.02;56.56;98634.56;4901704;28;104003;-63
2021/01/23 09:37:40;;;;;;;1.90;1.02;;;;;;;11.99;56.74;98637.91;4900202;28;123056;-63
2021/01/23 09:40:08;;;;;;;1.95;0.80;;;;;;;12.02;56.80;98649.94;4902602;28;98462;-63
2021/01/23 09:42:34;;;;;;;2.55;0.85;;;;;;;12.03;56.57;98646.16;4900912;28;98708;-63
2021/01/23 09:45:00;;;;;;;1.42;0.77;;;;;;;12.02;56.64;98645.38;4900458;28;102790;-63
2021/01/23 09:47:26;;;;;;;1.83;0.70;;;;;;;12.02;56.76;98650.78;4899903;28;119901;-63
2021/01/23 09:49:52;;;;;;;1.20;0.65;;;;;;;12.01;56.95;98653.78;4901034;28;114085;-64
2021/01/23 09:52:18;;;;;;;1.15;0.60;;;;;;;11.99;56.63;98654.09;4899258;28;127389;-63
2021/01/23 09:54:44;;;;;;;1.23;0.60;;;;;;;11.96;56.85;98652.03;4881939;28;100657;-63
2021/01/23 09:57:10;;;;;;;1.10;0.60;;;;;;;11.98;56.46;98644.41;4895771;28;103394;-63
2021/01/23 09:59:38;;;;;;;1.80;0.60;;;;;;;11.99;56.67;98647.91;4900783;28;126916;-64
2021/01/23 10:02:04;;;;;;;1.10;0.40;;;;;;;11.99;57.02;98650.63;4900437;28;98232;-63
2021/01/23 10:04:30;;;;;;;1.10;0.57;;;;;;;12.01;56.92;98651.88;4899620;28;108941;-63
2021/01/23 10:06:57;;;;;;;1.23;0.40;;;;;;;12.01;57.16;98651.06;4900807;28;98404;-63
2021/01/23 10:09:23;;;;;;;1.20;0.50;;;;;;;12.00;57.20;98665.69;4903055;28;112264;-64
2021/01/23 10:11:49;;;;;;;1.13;0.47;;;;;;;12.00;57.31;98663.00;4918406;28;126452;-63
2021/01/23 10:14:15;;;;;;;1.10;0.50;;;;;;;12.01;57.29;98662.66;4920413;28;97762;-63
2021/01/23 10:16:41;;;;;;;1.45;0.47;;;;;;;11.99;56.90;98664.13;4919103;28;119261;-63
2021/01/23 10:19:07;;;;;;;0.70;0.30;;;;;;;12.00;57.24;98663.00;4910853;28;127645;-64
2021/01/23 10:21:34;;;;;;;0.95;0.30;;;;;;;11.99;57.16;98664.91;4916444;28;125724;-62
2021/01/23 10:24:00;;;;;;;0.80;0.30;;;;;;;12.03;57.47;98667.75;4919579;28;101009;-62
2021/01/23 10:26:26;;;;;;;0.70;0.20;;;;;;;12.04;57.15;98669.34;4900911;28;119980;-62
2021/01/23 10:28:53;;;;;;;0.47;0.20;;;;;;;12.03;57.04;98678.56;4919484;28;98262;-63
2021/01/23 10:31:19;;;;;;;0.65;0.30;;;;;;;12.00;57.61;98676.50;4918361;28;100890;-62
2021/01/23 10:33:45;;;;;;;0.60;0.20;;;;;;;12.04;57.09;98685.56;4920465;28;97812;-63
2021/01/23 10:36:11;;;;;;;0.50;0.13;;;;;;;12.04;57.26;98685.56;4919471;28;111754;-63
2021/01/23 10:38:37;;;;;;;0.40;0.20;;;;;;;12.03;57.68;98678.56;4900697;28;127677;-62
2021/01/23 10:41:03;;;;;;;0.50;0.20;;;;;;;12.06;57.14;98693.31;4900307;28;128249;-62
2021/01/23 10:43:29;;;;;;;0.70;0.20;;;;;;;11.97;57.99;98688.72;4916947;28;123125;-63
2021/01/23 10:45:55;;;;;;;0.65;0.20;;;;;;;11.96;57.57;98691.75;4898644;28;99568;-63
2021/01/23 10:48:21;;;;;;;0.57;0.20;;;;;;;11.97;57.70;98693.34;4890224;28;128963;-62
2021/01/23 10:50:47;;;;;;;0.70;0.30;;;;;;;11.98;57.79;98697.63;4897498;28;118153;-63
2021/01/23 10:53:13;;;;;;;0.60;0.22;;;;;;;11.94;57.81;98700.16;4890094;28;98117;-63
2021/01/23 10:55:39;;;;;;;0.60;0.20;;;;;;;11.94;58.02;98702.84;4891734;28;128061;-63
2021/01/23 10:58:05;;;;;;;0.68;0.30;;;;;;;11.97;57.53;98704.91;4890422;28;127276;-63
2021/01/23 11:00:31;;;;;;;0.82;0.20;;;;;;;11.98;57.98;98700.31;4900179;28;126449;-63
2021/01/23 11:02:57;;;;;;;0.57;0.20;;;;;;;11.95;58.10;98712.56;4900975;28;99962;-63
2021/01/23 11:05:23;;;;;;;0.50;0.20;;;;;;;11.96;57.71;98716.84;4891300;28;128275;-63
2021/01/23 11:07:49;;;;;;;0.57;0.20;;;;;;;12.00;57.76;98708.91;4884941;28;118488;-63
2021/01/23 11:10:16;;;;;;;0.40;0.20;;;;;;;11.98;57.86;98711.13;4899339;28;98954;-62
2021/01/23 11:12:42;;;;;;;0.60;0.20;;;;;;;11.99;57.67;98720.81;4898774;28;98159;-63
2021/01/23 11:15:08;;;;;;;0.80;0.30;;;;;;;11.95;58.07;98719.88;4897802;28;125932;-63
2021/01/23 11:17:36;;;;;;;0.63;0.30;;;;;;;11.97;58.12;98723.81;4881296;28;98767;-63
2021/01/23 11:20:02;;;;;;;0.40;0.20;;;;;;;11.98;57.70;98730.81;4898264;28;98088;-63
2021/01/23 11:22:49;;;;;;;0.50;0.20;;;;;;;11.96;58.07;98724.94;4896403;28;115031;-63
2021/01/23 11:25:15;;;;;;;0.50;0.20;;;;;;;11.97;57.41;98731.94;4898456;28;98786;-63
2021/01/23 11:27:42;;;;;;;0.50;0.20;;;;;;;11.98;58.06;98740.81;4897953;28;126992;-63
2021/01/23 11:30:10;;;;;;;0.60;0.20;;;;;;;11.95;58.04;98744.97;4898684;28;97999;-63
2021/01/23 11:32:37;;;;;;;0.57;0.20;;;;;;;11.96;57.91;98743.84;4898122;28;97928;-63
2021/01/23 11:35:04;;;;;;;0.57;0.20;;;;;;;11.93;58.13;98741.78;4898627;28;98578;-64
2021/01/23 11:37:30;;;;;;;0.57;0.20;;;;;;;11.91;58.05;98743.22;4898021;28;104464;-63